Time;durP1;ratioP1;P1;durP2;ratioP2;P2;SDS_P1;SDS_P2;PMS_P1;PMS_P2;Temp;Humidity;BMP_temperature;BMP_pressure;BME280_temperature;BME280_humidity;BME280_pressure;Samples;Min_cycle;Max_cycle;Signal;HPM_P1;HPM_P2
2021/12/30 00:02:14;;;;;;;20.52;14.88;;;;;;;7.89;80.88;98829.88;5012680;28;20040;-84
2021/12/30 00:04:40;;;;;;;20.92;15.05;;;;;;;7.22;80.35;98729.94;5012469;28;20026;-85
2021/12/30 00:07:08;;;;;;;22.60;15.02;;;;;;;7.94;80.27;98829.34;5012582;28;20109;-84
2021/12/30 00:09:35;;;;;;;19.67;14.02;;;;;;;7.97;80.85;98839.50;5012597;28;20038;-85
2021/12/30 00:12:00;;;;;;;19.05;13.48;;;;;;;7.98;80.60;98860.34;5012577;28;20068;-85
2021/12/30 00:14:25;;;;;;;24.88;16.17;;;;;;;6.33;80.37;98631.66;5012627;28;20061;-85
2021/12/30 00:16:51;;;;;;;22.10;14.48;;;;;;;7.37;80.52;98765.94;5012522;28;20030;-83
2021/12/30 00:19:17;;;;;;;18.00;13.93;;;;;;;6.80;80.21;98670.06;5012388;28;20048;-85
2021/12/30 00:21:42;;;;;;;23.80;16.38;;;;;;;7.24;80.53;98724.50;5012477;28;20030;-85
2021/12/30 00:24:09;;;;;;;26.48;18.35;;;;;;;6.84;80.09;98665.28;5012379;28;20502;-85
2021/12/30 00:26:35;;;;;;;21.70;16.15;;;;;;;8.01;80.43;98864.41;4994569;28;20033;-84
2021/12/30 00:29:00;;;;;;;26.13;17.70;;;;;;;7.56;80.31;98782.03;5012062;28;20030;-84
2021/12/30 00:31:26;;;;;;;24.05;17.85;;;;;;;7.31;80.55;98759.56;5011920;28;20407;-84
2021/12/30 00:33:51;;;;;;;23.88;16.85;;;;;;;7.37;80.23;98773.81;5012084;28;20034;-85
2021/12/30 00:36:17;;;;;;;22.85;14.95;;;;;;;7.59;80.44;98815.84;5012246;28;20026;-84
2021/12/30 00:38:44;;;;;;;21.52;15.95;;;;;;;7.80;80.39;98845.88;5011994;28;20037;-85
2021/12/30 00:41:10;;;;;;;22.63;16.77;;;;;;;7.48;80.54;98794.44;5012004;28;20034;-85
2021/12/30 00:43:36;;;;;;;22.55;16.02;;;;;;;7.93;80.64;98910.00;5012075;28;20124;-85
2021/12/30 00:46:03;;;;;;;23.15;17.17;;;;;;;7.87;80.72;98863.41;5012080;28;20022;-84
2021/12/30 00:48:29;;;;;;;20.17;15.63;;;;;;;7.13;80.74;98735.44;5011818;28;20053;-83
2021/12/30 00:50:54;;;;;;;21.65;15.95;;;;;;;6.92;80.93;98720.31;5011464;28;20483;-85
2021/12/30 00:53:20;;;;;;;25.08;17.65;;;;;;;7.86;80.68;98868.81;5011653;28;20026;-84
2021/12/30 00:55:45;;;;;;;28.05;19.48;;;;;;;7.56;80.56;98810.94;5011784;28;20026;-84
2021/12/30 00:58:12;;;;;;;23.63;16.88;;;;;;;7.52;80.50;98814.91;5011864;28;20081;-83
2021/12/30 01:00:40;;;;;;;23.95;16.23;;;;;;;7.91;80.29;98867.31;5011703;28;20026;-85
2021/12/30 01:03:06;;;;;;;24.75;17.33;;;;;;;7.94;80.83;98874.84;5011455;28;20410;-84
2021/12/30 01:05:32;;;;;;;22.95;15.85;;;;;;;7.92;80.13;98873.38;5011572;28;20041;-84
2021/12/30 01:07:58;;;;;;;22.67;17.98;;;;;;;6.84;80.46;98704.66;5011569;28;20032;-84
2021/12/30 01:10:25;;;;;;;20.85;15.25;;;;;;;7.27;80.59;98774.03;5011472;28;20489;-84
2021/12/30 01:12:52;;;;;;;26.52;18.67;;;;;;;7.31;80.66;98765.63;5011490;28;20034;-83
2021/12/30 01:15:21;;;;;;;20.52;16.23;;;;;;;7.00;80.68;98728.97;5011555;28;20495;-85
2021/12/30 01:18:08;;;;;;;22.83;16.83;;;;;;;7.45;80.48;98821.84;5011382;28;20026;-83
2021/12/30 01:20:34;;;;;;;22.55;16.98;;;;;;;7.94;80.11;98889.78;5011618;28;20049;-84
2021/12/30 01:22:59;;;;;;;21.85;16.00;;;;;;;7.63;80.44;98830.25;5011559;28;20061;-86
2021/12/30 01:25:25;;;;;;;19.25;13.77;;;;;;;6.34;80.48;98638.53;5011703;28;20525;-85
2021/12/30 01:27:50;;;;;;;22.92;16.63;;;;;;;7.24;80.09;98762.09;4993814;28;20483;-85
2021/12/30 01:30:18;;;;;;;20.15;15.13;;;;;;;7.71;80.14;98834.63;5011073;28;20026;-84
2021/12/30 01:32:44;;;;;;;20.92;15.57;;;;;;;7.59;80.04;98831.59;5011130;28;20109;-85
2021/12/30 01:35:12;;;;;;;18.35;14.10;;;;;;;7.29;80.03;98791.25;5011528;28;20113;-84
2021/12/30 01:37:38;;;;;;;19.50;13.43;;;;;;;7.94;80.16;98885.34;5011543;28;20053;-84
2021/12/30 01:40:06;;;;;;;21.50;16.15;;;;;;;7.14;80.38;98758.88;5011367;28;20484;-83
2021/12/30 01:42:32;;;;;;;18.92;13.50;;;;;;;7.43;80.07;98813.34;5012315;28;20053;-85
2021/12/30 01:44:58;;;;;;;17.02;12.73;;;;;;;7.20;80.10;98763.44;5015089;28;20483;-83
2021/12/30 01:47:25;;;;;;;19.38;12.65;;;;;;;7.03;80.14;98742.72;5014936;28;20022;-84
2021/12/30 01:49:51;;;;;;;17.48;12.05;;;;;;;7.73;79.81;98864.16;5014937;28;20029;-84
2021/12/30 01:52:17;;;;;;;15.60;11.70;;;;;;;7.15;80.35;98773.63;5014902;28;20099;-84
2021/12/30 01:54:42;;;;;;;16.20;10.82;;;;;;;7.93;79.69;98883.72;5014890;28;20560;-84
2021/12/30 01:57:08;;;;;;;14.50;11.02;;;;;;;7.79;79.92;98887.13;5014862;28;20068;-84
2021/12/30 01:59:33;;;;;;;16.08;12.15;;;;;;;7.15;79.92;98765.75;5014725;28;20026;-83
2021/12/30 02:01:59;;;;;;;14.98;11.40;;;;;;;6.66;79.81;98697.84;5014723;28;20022;-85
2021/12/30 02:04:27;;;;;;;14.00;10.80;;;;;;;7.22;79.83;98795.56;5014474;28;20091;-84
2021/12/30 02:06:54;;;;;;;12.93;9.07;;;;;;;7.59;79.26;98836.03;5014629;28;20087;-84
2021/12/30 02:09:20;;;;;;;14.05;9.85;;;;;;;7.63;79.73;98867.03;5014579;28;20040;-84
2021/12/30 02:11:47;;;;;;;13.73;9.43;;;;;;;7.85;80.01;98893.47;5014772;28;20029;-84
2021/12/30 02:14:14;;;;;;;13.90;9.55;;;;;;;7.40;79.62;98834.66;5014604;28;20033;-83
2021/12/30 02:16:40;;;;;;;14.52;9.73;;;;;;;7.86;79.70;98892.47;5014750;28;20033;-84
2021/12/30 02:19:06;;;;;;;11.40;8.63;;;;;;;7.25;79.76;98810.16;5014633;28;20025;-85
2021/12/30 02:21:31;;;;;;;12.20;8.80;;;;;;;7.16;79.06;98795.44;5014367;28;20419;-83
2021/12/30 02:23:58;;;;;;;10.88;8.55;;;;;;;7.03;79.16;98780.28;5014600;28;20084;-84
2021/12/30 02:26:24;;;;;;;12.20;8.70;;;;;;;7.84;79.65;98924.19;5014491;28;20582;-85
2021/12/30 02:28:49;;;;;;;10.70;7.88;;;;;;;7.09;79.40;98786.66;5014739;28;20084;-84
2021/12/30 02:31:14;;;;;;;9.95;7.03;;;;;;;7.84;79.04;98913.69;5014203;28;20041;-85
2021/12/30 02:33:41;;;;;;;8.95;7.43;;;;;;;7.09;79.45;98792.72;5014231;28;20025;-83
2021/12/30 02:36:07;;;;;;;9.05;6.50;;;;;;;7.19;78.75;98810.84;5014330;28;20041;-84
2021/12/30 02:38:33;;;;;;;10.75;7.32;;;;;;;7.15;79.44;98807.75;5014291;28;20026;-85
2021/12/30 02:41:00;;;;;;;10.68;7.40;;;;;;;7.05;79.07;98786.19;5014104;28;20041;-84
2021/12/30 02:43:28;;;;;;;10.40;6.55;;;;;;;7.23;79.58;98823.47;5014129;28;20034;-82
2021/12/30 02:45:56;;;;;;;8.27;6.10;;;;;;;7.83;79.55;98924.38;5014303;28;20444;-83
2021/12/30 02:48:30;;;;;;;9.65;6.50;;;;;;;7.82;79.09;98925.38;5014156;28;20018;-85
2021/12/30 02:50:58;;;;;;;7.80;6.38;;;;;;;7.24;79.38;98832.97;5013744;28;20064;-84
2021/12/30 02:53:24;;;;;;;10.70;6.53;;;;;;;7.85;79.08;98931.09;5013184;28;20061;-84
2021/12/30 02:55:53;;;;;;;7.78;6.15;;;;;;;7.76;79.31;98919.00;4995858;28;20021;-84
2021/12/30 02:58:23;;;;;;;8.40;6.57;;;;;;;7.52;79.39;98885.00;5013973;28;20510;-85
2021/12/30 03:00:50;;;;;;;7.25;4.60;;;;;;;6.72;78.79;98769.81;5013728;28;20032;-84
2021/12/30 03:03:19;;;;;;;8.10;5.60;;;;;;;7.47;79.36;98892.59;5013564;28;20516;-85
2021/12/30 03:05:46;;;;;;;7.85;6.10;;;;;;;7.79;78.96;98941.47;5013646;28;20419;-84
2021/12/30 03:08:12;;;;;;;5.88;4.75;;;;;;;7.79;79.15;98939.66;5013444;28;20064;-82
2021/12/30 03:10:38;;;;;;;7.85;6.00;;;;;;;7.17;79.09;98839.09;5013644;28;20097;-84
2021/12/30 03:13:09;;;;;;;6.68;4.20;;;;;;;7.24;79.12;98847.91;5013844;28;20083;-84
2021/12/30 03:15:35;;;;;;;4.93;4.00;;;;;;;7.56;79.16;98913.38;5013491;28;20135;-84
2021/12/30 03:18:01;;;;;;;5.00;3.70;;;;;;;7.00;78.51;98818.19;5013446;28;20116;-84
2021/12/30 03:20:30;;;;;;;4.25;3.10;;;;;;;7.75;79.30;98954.16;5013535;28;20049;-83
2021/12/30 03:22:56;;;;;;;3.45;3.03;;;;;;;7.13;79.15;98856.19;5013644;28;20033;-84
2021/12/30 03:25:21;;;;;;;2.90;2.70;;;;;;;7.13;79.22;98846.50;4995795;28;20022;-87
2021/12/30 03:27:47;;;;;;;4.38;3.13;;;;;;;7.74;79.09;98976.16;4995714;28;20029;-87
2021/12/30 03:30:15;;;;;;;4.22;3.55;;;;;;;6.78;78.76;98810.28;5013300;28;20073;-87
2021/12/30 03:32:41;;;;;;;4.13;3.72;;;;;;;7.06;78.50;98849.97;5013366;28;20079;-87
2021/12/30 03:35:07;;;;;;;3.15;2.85;;;;;;;6.90;78.49;98843.84;5013062;28;20022;-87
2021/12/30 03:37:33;;;;;;;3.25;2.95;;;;;;;7.38;78.43;98925.13;4995399;28;20156;-87
2021/12/30 03:40:00;;;;;;;3.50;2.97;;;;;;;7.10;78.73;98878.34;4995378;28;20096;-87
2021/12/30 03:42:25;;;;;;;4.20;3.60;;;;;;;7.40;78.79;98933.66;4995433;28;20029;-87
2021/12/30 03:44:56;;;;;;;3.50;3.20;;;;;;;6.83;78.55;98847.31;5013130;28;20026;-87
2021/12/30 03:47:22;;;;;;;2.75;2.33;;;;;;;6.80;79.10;98858.97;5012876;28;20096;-87
2021/12/30 03:49:47;;;;;;;2.78;2.00;;;;;;;6.87;78.43;98872.22;4995247;28;20092;-88
2021/12/30 03:52:19;;;;;;;2.03;1.65;;;;;;;7.52;78.55;98979.56;4995228;28;20030;-87
2021/12/30 03:54:45;;;;;;;2.72;1.85;;;;;;;6.81;78.66;98863.22;5012920;28;20030;-88
2021/12/30 03:57:11;;;;;;;1.45;1.20;;;;;;;6.94;78.26;98894.16;5013080;28;20037;-87
2021/12/30 03:59:36;;;;;;;1.40;1.20;;;;;;;6.62;78.60;98848.69;5012777;28;20181;-87
2021/12/30 04:02:02;;;;;;;2.08;1.30;;;;;;;7.33;78.11;98976.34;5012714;28;20037;-87
2021/12/30 04:04:27;;;;;;;1.35;1.00;;;;;;;6.66;78.17;98868.34;5012265;28;20068;-87
2021/12/30 04:06:53;;;;;;;1.27;0.90;;;;;;;6.91;78.44;98916.31;4994558;28;20503;-87
2021/12/30 04:09:18;;;;;;;0.90;0.90;;;;;;;6.37;77.88;98844.50;5012417;28;20029;-87
2021/12/30 04:11:44;;;;;;;1.73;1.00;;;;;;;7.23;78.16;98990.69;4994603;28;20030;-88
2021/12/30 04:14:09;;;;;;;2.35;1.05;;;;;;;6.75;77.95;98913.75;5012254;28;20467;-87
2021/12/30 04:16:35;;;;;;;2.38;1.33;;;;;;;7.01;77.92;98960.75;4994761;28;20399;-88
2021/12/30 04:19:01;;;;;;;2.10;1.55;;;;;;;6.84;77.73;98946.84;5012293;28;20095;-88
2021/12/30 04:21:27;;;;;;;2.20;1.50;;;;;;;5.90;77.72;98802.47;4994543;28;20466;-88
2021/12/30 04:23:52;;;;;;;2.42;2.05;;;;;;;7.41;77.46;99037.72;5012178;28;20034;-84
2021/12/30 04:26:18;;;;;;;3.17;2.25;;;;;;;6.62;77.24;98918.69;5012353;28;20022;-84
2021/12/30 04:28:44;;;;;;;11.50;2.72;;;;;;;6.67;77.62;98942.59;5012256;28;20042;-85
2021/12/30 04:31:10;;;;;;;1.45;1.00;;;;;;;6.76;77.20;98956.53;5012145;28;20450;-85
2021/12/30 04:33:36;;;;;;;1.40;1.13;;;;;;;5.72;77.88;98800.84;5012029;28;20054;-85
2021/12/30 04:36:02;;;;;;;0.95;0.90;;;;;;;7.23;78.18;99064.19;5012070;28;20064;-84
2021/12/30 04:38:30;;;;;;;1.30;1.05;;;;;;;6.84;77.40;99001.13;4994412;28;20025;-85
2021/12/30 04:40:55;;;;;;;1.35;1.00;;;;;;;6.12;77.79;98895.34;4994552;28;20473;-85
2021/12/30 04:43:21;;;;;;;1.52;1.13;;;;;;;7.25;77.72;99097.19;5011912;28;20033;-85
2021/12/30 04:45:47;;;;;;;2.05;1.50;;;;;;;6.20;77.74;98917.13;5012042;28;20030;-85
2021/12/30 04:48:14;;;;;;;2.17;1.50;;;;;;;7.24;78.00;99086.84;5011926;28;20100;-85
2021/12/30 04:50:40;;;;;;;1.85;1.45;;;;;;;7.07;77.72;99067.69;5011925;28;20026;-83
2021/12/30 04:53:06;;;;;;;2.97;1.52;;;;;;;6.62;77.35;99006.06;4994372;28;20030;-85
2021/12/30 04:55:31;;;;;;;2.30;1.77;;;;;;;6.58;77.11;98998.69;5012055;28;20030;-85
2021/12/30 04:57:56;;;;;;;1.73;1.63;;;;;;;6.57;77.13;99007.53;5011778;28;20041;-85
2021/12/30 05:00:22;;;;;;;1.48;1.38;;;;;;;6.58;77.04;99009.19;4994177;28;20522;-85
2021/12/30 05:05:29;;;;;;;1.52;1.40;;;;;;;7.13;77.40;99122.13;5011655;28;20030;-85
2021/12/30 05:07:55;;;;;;;1.63;1.52;;;;;;;5.93;77.72;98941.00;5011542;28;20112;-85
2021/12/30 05:10:20;;;;;;;1.75;1.58;;;;;;;5.96;76.78;98932.84;5011712;28;20129;-84
2021/12/30 05:12:46;;;;;;;1.65;1.55;;;;;;;7.20;76.86;99161.69;5011521;28;20033;-86
2021/12/30 05:15:12;;;;;;;2.55;2.17;;;;;;;7.04;77.40;99111.81;5011297;28;20483;-84
2021/12/30 05:17:39;;;;;;;4.35;2.42;;;;;;;6.57;76.96;99042.47;5010540;28;20466;-85
2021/12/30 05:20:05;;;;;;;3.10;2.22;;;;;;;7.18;76.87;99140.84;5011407;28;20101;-85
2021/12/30 05:22:30;;;;;;;3.13;2.20;;;;;;;6.85;76.57;99094.59;5011189;28;20026;-85
2021/12/30 05:24:55;;;;;;;3.10;2.20;;;;;;;6.12;77.08;98980.03;5011368;28;20113;-84
2021/12/30 05:27:21;;;;;;;2.65;2.45;;;;;;;7.17;77.29;99167.25;5011448;28;20415;-82
2021/12/30 05:29:47;;;;;;;3.03;1.92;;;;;;;6.99;76.81;99128.88;5011401;28;20033;-83
2021/12/30 05:32:13;;;;;;;3.15;2.17;;;;;;;5.77;76.65;98941.78;5011498;28;20037;-85
2021/12/30 05:34:38;;;;;;;5.63;2.50;;;;;;;6.89;76.90;99128.22;5011547;28;20018;-85
2021/12/30 05:37:04;;;;;;;4.75;3.50;;;;;;;6.44;77.03;99093.75;5011224;28;20041;-85
2021/12/30 05:39:30;;;;;;;4.82;3.50;;;;;;;6.95;76.86;99148.56;4993625;28;20030;-86
2021/12/30 05:41:55;;;;;;;3.40;2.50;;;;;;;6.50;77.56;99078.19;5011536;28;20430;-84
2021/12/30 05:44:21;;;;;;;5.90;3.75;;;;;;;6.63;77.77;99117.88;5011354;28;20030;-85
2021/12/30 05:46:46;;;;;;;4.70;2.80;;;;;;;6.44;77.42;99091.97;5011330;28;20026;-85
2021/12/30 05:49:12;;;;;;;3.28;2.97;;;;;;;6.11;77.60;99046.53;5011323;28;20590;-85
2021/12/30 05:51:38;;;;;;;5.55;3.45;;;;;;;6.03;77.15;99030.78;5011127;28;20037;-86
2021/12/30 05:54:03;;;;;;;3.25;2.80;;;;;;;6.47;77.00;99103.91;5011000;28;20029;-86
2021/12/30 05:56:29;;;;;;;3.33;2.85;;;;;;;7.07;77.14;99205.97;5011426;28;20037;-87
2021/12/30 05:58:54;;;;;;;4.25;3.38;;;;;;;7.08;77.12;99202.38;5011210;28;20029;-87
2021/12/30 06:01:20;;;;;;;3.53;3.17;;;;;;;6.52;77.20;99135.72;5011141;28;20022;-86
2021/12/30 06:03:45;;;;;;;4.32;3.55;;;;;;;6.37;77.49;99094.41;5011022;28;20026;-87
2021/12/30 06:06:11;;;;;;;4.45;3.90;;;;;;;6.50;77.37;99142.94;5010996;28;20030;-85
2021/12/30 06:08:37;;;;;;;4.65;3.20;;;;;;;5.98;77.47;99040.94;5011028;28;20462;-86
2021/12/30 06:11:03;;;;;;;5.25;3.60;;;;;;;7.23;77.27;99261.13;5010793;28;20026;-86
2021/12/30 06:13:28;;;;;;;4.93;3.95;;;;;;;5.95;77.09;99057.00;5010855;28;20109;-85
2021/12/30 06:15:54;;;;;;;6.50;4.85;;;;;;;6.61;76.68;99140.00;5010801;28;20029;-85
2021/12/30 06:18:19;;;;;;;7.40;5.43;;;;;;;6.65;77.18;99152.63;5011079;28;20030;-86
2021/12/30 06:20:44;;;;;;;5.68;3.78;;;;;;;6.79;76.84;99182.69;5011207;28;20030;-86
2021/12/30 06:23:11;;;;;;;6.25;3.63;;;;;;;7.33;76.23;99277.53;5010857;28;20026;-86
2021/12/30 06:25:36;;;;;;;4.45;3.70;;;;;;;6.00;76.74;99049.47;5010768;28;20104;-86
2021/12/30 06:28:03;;;;;;;4.25;3.30;;;;;;;6.92;76.62;99205.81;5010852;28;20076;-87
2021/12/30 06:30:28;;;;;;;5.97;3.92;;;;;;;6.03;76.71;99076.16;5014319;28;20030;-87
2021/12/30 06:32:54;;;;;;;4.80;3.95;;;;;;;6.43;76.75;99139.31;5014476;28;20030;-86
2021/12/30 06:35:19;;;;;;;5.65;3.92;;;;;;;6.80;75.84;99202.69;5014597;28;20435;-86
2021/12/30 06:37:45;;;;;;;5.72;4.18;;;;;;;7.28;76.70;99287.72;5014273;28;20030;-84
2021/12/30 06:40:13;;;;;;;6.43;4.80;;;;;;;7.29;76.39;99292.78;5014046;28;20037;-85
2021/12/30 06:42:38;;;;;;;6.70;4.95;;;;;;;7.09;76.37;99270.47;5013990;28;20426;-86
2021/12/30 06:45:04;;;;;;;9.32;5.68;;;;;;;6.71;76.47;99208.91;5014337;28;20040;-86
2021/12/30 06:47:30;;;;;;;7.72;5.88;;;;;;;7.00;76.34;99253.88;5013994;28;20022;-86
2021/12/30 06:50:02;;;;;;;5.55;4.32;;;;;;;5.92;76.45;99099.19;5013916;28;20030;-86
2021/12/30 06:52:28;;;;;;;;;;;;;;;7.19;76.26;99314.94;5014468;28;20025;-86
2021/12/30 06:54:53;;;;;;;7.00;4.63;;;;;;;7.23;76.17;99322.34;5013911;28;20446;-86
2021/12/30 06:57:18;;;;;;;6.65;4.40;;;;;;;5.80;75.71;99105.69;5013634;28;20026;-84
2021/12/30 06:59:46;;;;;;;7.70;4.13;;;;;;;6.74;76.19;99257.59;5013688;28;20033;-86
2021/12/30 07:02:13;;;;;;;6.00;3.70;;;;;;;5.96;75.80;99142.47;5013678;28;20088;-83
2021/12/30 07:04:38;;;;;;;4.18;3.38;;;;;;;6.08;75.95;99167.41;5013452;28;20614;-86
2021/12/30 07:07:04;;;;;;;4.03;2.85;;;;;;;7.14;75.57;99346.94;5013331;28;20034;-86
2021/12/30 07:09:30;;;;;;;3.88;3.10;;;;;;;5.95;76.02;99186.19;5012956;28;20038;-86
2021/12/30 07:11:56;;;;;;;3.78;2.85;;;;;;;7.08;76.03;99365.94;5013502;28;20021;-86
2021/12/30 07:14:22;;;;;;;4.55;3.28;;;;;;;7.06;75.69;99354.78;4995885;28;20037;-86
2021/12/30 07:16:48;;;;;;;5.88;3.67;;;;;;;7.07;75.27;99359.06;5013417;28;20021;-84
2021/12/30 07:19:14;;;;;;;12.35;6.43;;;;;;;6.46;75.11;99270.94;5013665;28;20051;-86
2021/12/30 07:21:40;;;;;;;5.20;4.00;;;;;;;6.99;75.50;99370.34;5013370;28;20395;-86
2021/12/30 07:24:06;;;;;;;5.93;3.78;;;;;;;6.58;75.88;99302.94;5013361;28;20484;-85
2021/12/30 07:26:32;;;;;;;5.15;3.25;;;;;;;6.87;75.51;99370.81;5013134;28;20157;-86
2021/12/30 07:28:57;;;;;;;4.63;3.97;;;;;;;6.27;75.83;99276.44;5012891;28;20514;-83
2021/12/30 07:31:23;;;;;;;3.42;3.13;;;;;;;6.91;75.84;99374.75;5013172;28;20550;-86
2021/12/30 07:33:49;;;;;;;4.90;3.83;;;;;;;6.63;75.59;99330.34;4995764;28;20112;-85
2021/12/30 07:36:14;;;;;;;5.88;5.28;;;;;;;7.00;75.50;99400.88;5013467;28;20026;-86
2021/12/30 07:38:39;;;;;;;6.68;5.85;;;;;;;6.57;75.83;99327.53;5013177;28;20029;-86
2021/12/30 07:41:05;;;;;;;5.10;3.90;;;;;;;6.97;75.26;99395.94;5012251;28;20453;-85
2021/12/30 07:43:32;;;;;;;3.50;2.78;;;;;;;6.58;75.55;99332.63;5013112;28;20018;-86
2021/12/30 07:45:59;;;;;;;4.97;3.78;;;;;;;6.98;74.78;99418.59;5013292;28;20037;-85
2021/12/30 07:48:25;;;;;;;6.03;4.22;;;;;;;7.05;74.94;99410.06;5012861;28;20487;-86
2021/12/30 07:50:50;;;;;;;4.95;3.85;;;;;;;7.08;74.81;99413.22;5012808;28;20109;-87
2021/12/30 07:53:16;;;;;;;4.95;3.55;;;;;;;6.77;75.01;99365.69;5013010;28;20117;-86
2021/12/30 07:55:41;;;;;;;7.88;4.55;;;;;;;6.51;75.19;99334.22;5012697;28;20025;-86
2021/12/30 07:58:07;;;;;;;5.43;3.30;;;;;;;6.09;74.73;99252.91;4995038;28;20021;-87
2021/12/30 08:00:33;;;;;;;4.55;3.00;;;;;;;7.12;74.68;99424.22;5012735;28;20026;-86
2021/12/30 08:02:58;;;;;;;5.25;3.90;;;;;;;6.34;74.78;99304.50;5012079;28;20050;-85
2021/12/30 08:05:24;;;;;;;3.80;2.85;;;;;;;6.95;75.14;99418.06;5012490;28;20025;-85
2021/12/30 08:07:49;;;;;;;4.30;3.30;;;;;;;7.13;74.87;99437.19;4994862;28;20422;-86
2021/12/30 08:10:18;;;;;;;5.10;4.25;;;;;;;6.75;74.75;99372.06;5012347;28;20030;-86
2021/12/30 08:12:45;;;;;;;5.63;4.93;;;;;;;6.35;74.86;99313.19;5012420;28;20029;-86
2021/12/30 08:15:13;;;;;;;7.28;5.72;;;;;;;7.04;74.86;99435.50;5012503;28;20075;-85
2021/12/30 08:17:39;;;;;;;5.80;3.60;;;;;;;5.80;74.33;99237.47;5011791;28;20025;-85
2021/12/30 08:20:06;;;;;;;4.35;3.65;;;;;;;7.05;75.37;99437.16;5012242;28;20064;-85
2021/12/30 08:22:32;;;;;;;3.78;2.95;;;;;;;6.80;75.18;99423.09;5012185;28;20025;-85
2021/12/30 08:24:58;;;;;;;5.78;4.82;;;;;;;6.33;74.27;99336.09;5011984;28;20021;-86
2021/12/30 08:27:23;;;;;;;6.55;4.38;;;;;;;4.68;74.05;99071.66;5012201;28;20087;-85
2021/12/30 08:29:49;;;;;;;7.00;3.80;;;;;;;7.19;74.57;99498.75;5012096;28;20041;-86
2021/12/30 08:32:16;;;;;;;4.95;2.85;;;;;;;6.97;74.88;99437.13;5011990;28;20547;-84
2021/12/30 08:34:44;;;;;;;3.85;2.90;;;;;;;6.29;74.17;99343.47;5011943;28;20032;-86
2021/12/30 08:37:11;;;;;;;4.75;3.90;;;;;;;6.40;74.44;99352.03;5011852;28;20020;-85
2021/12/30 08:39:37;;;;;;;3.58;3.10;;;;;;;7.21;74.29;99481.84;4994057;28;20032;-86
2021/12/30 08:42:04;;;;;;;2.90;2.50;;;;;;;6.10;74.31;99309.59;5012001;28;20418;-85
2021/12/30 08:44:30;;;;;;;2.38;2.08;;;;;;;7.16;74.11;99489.38;5011840;28;20053;-85
2021/12/30 08:46:56;;;;;;;2.97;2.63;;;;;;;6.10;74.18;99332.38;4994185;28;20486;-85
2021/12/30 08:49:23;;;;;;;5.53;4.38;;;;;;;7.21;74.74;99523.03;5011725;28;20030;-84
2021/12/30 08:51:49;;;;;;;4.15;3.00;;;;;;;6.40;74.13;99354.66;5011661;28;20392;-84
2021/12/30 08:54:15;;;;;;;4.00;3.60;;;;;;;6.98;74.73;99452.72;5011924;28;20084;-85
2021/12/30 08:56:40;;;;;;;4.30;3.83;;;;;;;7.25;74.10;99484.97;5011834;28;20029;-83
2021/12/30 08:59:06;;;;;;;4.30;3.00;;;;;;;7.17;74.43;99474.44;5011823;28;20026;-85
2021/12/30 09:01:31;;;;;;;5.30;4.10;;;;;;;6.22;74.25;99355.56;5011946;28;20030;-85
2021/12/30 09:03:57;;;;;;;7.40;4.43;;;;;;;6.46;74.77;99354.84;5011358;28;20017;-85
2021/12/30 09:06:22;;;;;;;4.65;3.42;;;;;;;6.68;74.48;99391.03;5011630;28;20030;-84
2021/12/30 09:08:48;;;;;;;4.30;3.20;;;;;;;6.52;74.14;99361.28;5011225;28;20482;-85
2021/12/30 09:11:13;;;;;;;6.95;4.72;;;;;;;7.31;74.56;99493.03;5011495;28;20038;-85
2021/12/30 09:13:39;;;;;;;9.32;6.22;;;;;;;6.56;74.81;99386.22;5011445;28;20025;-84
2021/12/30 09:16:04;;;;;;;6.85;5.38;;;;;;;6.64;74.71;99367.91;5011403;28;20025;-82
2021/12/30 09:18:30;;;;;;;6.38;4.97;;;;;;;7.44;74.66;99492.63;5011191;28;20034;-85
2021/12/30 09:20:56;;;;;;;7.28;6.00;;;;;;;6.60;74.52;99362.13;5011152;28;20080;-85
2021/12/30 09:23:22;;;;;;;7.20;5.15;;;;;;;7.48;74.56;99522.03;5011235;28;20083;-84
2021/12/30 09:25:48;;;;;;;7.13;5.35;;;;;;;6.97;75.02;99445.00;5011042;28;20457;-82
2021/12/30 09:28:14;;;;;;;7.55;5.95;;;;;;;7.32;74.70;99489.44;5011192;28;20040;-85
2021/12/30 09:30:42;;;;;;;6.90;5.57;;;;;;;7.19;75.04;99464.59;4993591;28;20033;-86
2021/12/30 09:33:08;;;;;;;7.40;5.10;;;;;;;6.62;74.79;99375.91;5011152;28;20038;-85
2021/12/30 09:35:34;;;;;;;7.18;5.18;;;;;;;7.57;75.57;99503.50;5011309;28;20105;-85
2021/12/30 09:38:00;;;;;;;10.57;6.10;;;;;;;7.55;75.37;99508.09;5011520;28;20104;-85
2021/12/30 09:40:27;;;;;;;7.30;5.22;;;;;;;7.57;75.14;99510.56;5011078;28;20026;-85
2021/12/30 09:43:01;;;;;;;6.47;5.20;;;;;;;7.62;75.87;99510.91;4993622;28;20032;-84
2021/12/30 09:45:28;;;;;;;7.53;5.82;;;;;;;7.65;75.81;99513.22;5011516;28;20030;-85
2021/12/30 09:47:56;;;;;;;11.07;8.00;;;;;;;7.06;75.75;99419.59;5010932;28;20036;-85
2021/12/30 09:50:28;;;;;;;7.85;6.47;;;;;;;7.52;75.33;99502.34;5010769;28;20044;-85
2021/12/30 09:52:56;;;;;;;9.45;7.30;;;;;;;7.73;75.53;99515.03;5011016;28;20033;-85
2021/12/30 09:55:21;;;;;;;9.35;7.35;;;;;;;7.07;75.43;99416.81;5009859;28;20050;-84
2021/12/30 09:57:47;;;;;;;9.07;7.88;;;;;;;6.98;75.75;99392.34;5011145;28;20037;-84
2021/12/30 10:00:14;;;;;;;8.30;6.28;;;;;;;6.83;75.92;99386.03;5010989;28;20561;-84
2021/12/30 10:02:41;;;;;;;9.05;7.68;;;;;;;7.02;75.60;99403.34;5010987;28;20109;-83
2021/12/30 10:05:13;;;;;;;9.75;8.50;;;;;;;7.40;76.15;99461.56;5014387;28;20457;-84
2021/12/30 10:07:41;;;;;;;;;;;;;;;7.71;77.40;99532.78;5015103;28;20057;-85
2021/12/30 10:10:32;;;;;;;8.43;7.53;;;;;;;7.82;76.07;99532.47;5014825;28;19963;-85
2021/12/30 10:12:59;;;;;;;9.30;7.03;;;;;;;7.27;76.51;99436.56;5014380;28;20068;-84
2021/12/30 10:15:27;;;;;;;8.00;6.78;;;;;;;7.58;76.44;99481.50;5014293;28;20052;-81
2021/12/30 10:17:58;;;;;;;13.23;9.43;;;;;;;6.57;75.95;99314.41;5014614;28;20054;-84
2021/12/30 10:20:28;;;;;;;7.05;6.32;;;;;;;7.23;76.52;99416.03;5014535;28;20108;-85
2021/12/30 10:22:56;;;;;;;7.10;6.40;;;;;;;7.92;76.32;99539.25;5014718;28;20109;-84
2021/12/30 10:25:33;;;;;;;8.75;7.85;;;;;;;7.95;76.78;99532.84;5014721;28;20033;-85
2021/12/30 10:28:18;;;;;;;9.80;7.05;;;;;;;6.86;76.91;99356.88;5014440;28;20215;-84
2021/12/30 10:30:44;;;;;;;10.25;7.88;;;;;;;7.80;76.59;99510.78;5014199;28;20037;-82
2021/12/30 10:33:16;;;;;;;13.95;11.93;;;;;;;7.56;76.77;99470.34;5014166;28;20026;-84
2021/12/30 10:35:42;;;;;;;12.80;8.48;;;;;;;8.01;76.43;99550.59;5014076;28;20117;-85
2021/12/30 10:38:11;;;;;;;8.80;7.15;;;;;;;8.03;76.63;99589.88;5014211;28;20454;-84
2021/12/30 10:40:50;;;;;;;9.98;7.20;;;;;;;8.01;76.49;99550.59;5014042;28;20105;-82
2021/12/30 10:43:37;;;;;;;7.53;6.10;;;;;;;6.80;76.70;99362.75;5014051;28;20026;-82
2021/12/30 10:46:08;;;;;;;10.40;8.02;;;;;;;7.99;76.62;99549.94;5014038;28;20033;-82
2021/12/30 10:48:43;;;;;;;7.95;6.47;;;;;;;7.80;76.27;99523.94;5013376;28;20487;-82
2021/12/30 10:51:18;;;;;;;7.95;6.40;;;;;;;7.40;76.83;99462.38;5013661;28;20042;-82
2021/12/30 10:53:44;;;;;;;9.27;7.93;;;;;;;7.93;76.65;99561.91;5013557;28;20029;-84
2021/12/30 10:56:22;;;;;;;7.53;6.50;;;;;;;7.88;76.54;99548.44;5013281;28;20495;-83
2021/12/30 10:58:47;;;;;;;8.82;6.80;;;;;;;5.79;76.24;99224.53;5013461;28;20109;-83
2021/12/30 11:01:24;;;;;;;9.40;6.10;;;;;;;7.75;76.27;99550.69;5013325;28;20037;-82
2021/12/30 11:03:58;;;;;;;7.25;5.75;;;;;;;6.74;76.80;99386.16;5013454;28;20137;-84
2021/12/30 11:06:24;;;;;;;7.30;6.30;;;;;;;7.21;76.49;99460.00;5013920;28;20036;-83
2021/12/30 11:09:03;;;;;;;6.35;5.30;;;;;;;7.48;76.53;99504.47;5013108;28;20054;-85
2021/12/30 11:11:29;;;;;;;20.65;13.63;;;;;;;7.89;76.33;99581.63;5013356;28;20062;-83
2021/12/30 11:13:57;;;;;;;11.73;8.75;;;;;;;7.88;76.55;99566.00;5013211;28;20521;-82
2021/12/30 11:16:23;;;;;;;8.15;7.28;;;;;;;6.73;76.33;99392.41;5012234;28;20479;-82
2021/12/30 11:18:48;;;;;;;9.90;8.10;;;;;;;7.13;76.26;99436.34;5013451;28;20036;-83
2021/12/30 11:21:44;;;;;;;10.48;8.23;;;;;;;7.94;76.78;99563.56;5013104;28;20030;-84
2021/12/30 11:24:10;;;;;;;8.80;6.85;;;;;;;7.95;76.23;99573.09;4995602;28;20029;-85
2021/12/30 11:26:37;;;;;;;8.50;7.55;;;;;;;7.57;76.68;99506.13;4996054;28;20105;-85
2021/12/30 11:29:04;;;;;;;8.00;5.57;;;;;;;7.29;76.15;99486.31;5013377;28;20030;-86
2021/12/30 11:31:31;;;;;;;7.97;6.32;;;;;;;6.83;76.64;99407.03;4996275;28;20462;-86
2021/12/30 11:33:58;;;;;;;7.45;6.05;;;;;;;7.73;76.91;99546.59;4996247;28;20037;-86
2021/12/30 11:36:24;;;;;;;7.75;6.50;;;;;;;7.01;76.75;99433.19;5013404;28;20025;-86
2021/12/30 11:38:49;;;;;;;7.10;5.88;;;;;;;7.46;76.54;99502.97;5013069;28;20033;-86
2021/12/30 11:41:20;;;;;;;7.18;6.22;;;;;;;7.60;76.22;99547.84;5012305;28;20025;-85